createdAt,value
2018-02-16T07:33:40.786Z,1027.64
2018-02-16T07:34:40.381Z,1027.66
2018-02-16T07:35:40.388Z,1027.68
2018-02-16T07:36:40.452Z,1027.65
2018-02-16T07:37:40.382Z,1027.63
2018-02-16T07:38:40.409Z,1027.64
2018-02-16T07:39:40.381Z,1027.65
2018-02-16T07:40:40.407Z,1027.65
2018-02-16T07:41:40.431Z,1027.66
2018-02-16T07:42:40.338Z,1027.62
2018-02-16T07:43:40.368Z,1027.65
2018-02-16T07:44:40.333Z,1027.67
2018-02-16T07:45:40.365Z,1027.66
2018-02-16T07:46:40.329Z,1027.67
2018-02-16T07:47:40.346Z,1027.68
2018-02-16T07:48:40.330Z,1027.66
2018-02-16T07:49:40.439Z,1027.71
2018-02-16T07:50:40.355Z,1027.69
2018-02-16T07:51:40.340Z,1027.69
2018-02-16T07:52:40.337Z,1027.73
2018-02-16T07:53:40.342Z,1027.74
2018-02-16T07:54:40.336Z,1027.74
2018-02-16T07:55:40.393Z,1027.75
2018-02-16T07:56:40.344Z,1027.81
2018-02-16T07:57:40.330Z,1027.83
2018-02-16T07:58:40.621Z,1027.85
2018-02-16T07:59:40.343Z,1027.83
2018-02-16T08:00:40.331Z,1027.86
2018-02-16T08:01:40.330Z,1027.91
2018-02-16T08:02:40.341Z,1027.91
2018-02-16T08:03:40.343Z,1027.95
2018-02-16T08:04:40.340Z,1027.97
2018-02-16T08:05:40.319Z,1027.96
2018-02-16T08:06:40.334Z,1027.95
2018-02-16T08:07:40.336Z,1027.96
2018-02-16T08:08:40.321Z,1028
2018-02-16T08:09:40.326Z,1028.01
2018-02-16T08:10:40.337Z,1028
2018-02-16T08:11:40.318Z,1028.01
2018-02-16T08:12:40.415Z,1027.99
2018-02-16T08:13:40.337Z,1028.03
2018-02-16T08:14:40.358Z,1028.03
2018-02-16T08:15:40.337Z,1028.02
2018-02-16T08:16:40.343Z,1028.04
2018-02-16T08:17:40.356Z,1028.03
2018-02-16T08:18:40.339Z,1028.04
2018-02-16T08:19:40.370Z,1028.08
2018-02-16T08:20:40.358Z,1028.1
2018-02-16T08:21:40.329Z,1028.1
2018-02-16T08:22:40.331Z,1028.13
2018-02-16T08:23:40.336Z,1028.09
2018-02-16T08:24:40.333Z,1028.13
2018-02-16T08:25:40.335Z,1028.1
2018-02-16T08:26:40.345Z,1028.16
2018-02-16T08:27:40.320Z,1028.16
2018-02-16T08:28:40.332Z,1028.18
2018-02-16T08:29:40.322Z,1028.2
2018-02-16T08:30:40.331Z,1028.22
2018-02-16T08:31:40.304Z,1028.17
2018-02-16T08:32:40.505Z,1028.22
2018-02-16T08:33:40.334Z,1028.22
2018-02-16T08:34:40.335Z,1028.18
2018-02-16T08:35:40.333Z,1028.23
2018-02-16T08:36:40.326Z,1028.22
2018-02-16T08:37:40.380Z,1028.23
2018-02-16T08:38:40.332Z,1028.29
2018-02-16T08:39:40.305Z,1028.28
2018-02-16T08:40:40.385Z,1028.28
2018-02-16T08:41:40.326Z,1028.36
2018-02-16T08:42:40.394Z,1028.33
2018-02-16T08:43:40.328Z,1028.41
2018-02-16T08:44:40.331Z,1028.42
2018-02-16T08:45:40.328Z,1028.49
2018-02-16T08:46:40.339Z,1028.52
2018-02-16T08:47:40.309Z,1028.49
2018-02-16T08:48:40.317Z,1028.52
2018-02-16T08:49:40.325Z,1028.53
2018-02-16T08:50:40.330Z,1028.52
2018-02-16T08:51:40.300Z,1028.59
2018-02-16T08:52:40.316Z,1028.57
2018-02-16T08:53:40.329Z,1028.55
2018-02-16T08:54:40.422Z,1028.58
2018-02-16T08:55:40.366Z,1028.56
2018-02-16T08:56:40.329Z,1028.6
2018-02-16T08:57:40.560Z,1028.58
2018-02-16T08:58:40.325Z,1028.6
2018-02-16T08:59:40.317Z,1028.59
2018-02-16T09:00:40.632Z,1028.59
2018-02-16T09:01:40.316Z,1028.57
2018-02-16T09:02:40.318Z,1028.57
2018-02-16T09:03:40.343Z,1028.62
2018-02-16T09:04:40.330Z,1028.63
2018-02-16T09:05:40.325Z,1028.65
2018-02-16T09:06:40.328Z,1028.69
2018-02-16T09:07:40.328Z,1028.68
2018-02-16T09:08:40.359Z,1028.67
2018-02-16T09:09:40.291Z,1028.69
2018-02-16T09:10:40.324Z,1028.68
2018-02-16T09:11:40.309Z,1028.71
2018-02-16T09:12:40.302Z,1028.75
2018-02-16T09:13:40.319Z,1028.76
2018-02-16T09:14:40.407Z,1028.84
2018-02-16T09:15:40.422Z,1028.76
2018-02-16T09:16:40.318Z,1028.81
2018-02-16T09:17:40.287Z,1028.79
2018-02-16T09:18:40.349Z,1028.82
2018-02-16T09:19:40.331Z,1028.83
2018-02-16T09:20:40.376Z,1028.84
2018-02-16T09:21:40.319Z,1028.9
2018-02-16T09:22:40.351Z,1028.88
2018-02-16T09:23:40.323Z,1028.93
2018-02-16T09:24:40.326Z,1028.95
2018-02-16T09:25:40.311Z,1028.96
2018-02-16T09:26:40.352Z,1029.01
2018-02-16T09:27:40.432Z,1028.99
2018-02-16T09:28:40.327Z,1029
2018-02-16T09:29:40.288Z,1029.01
2018-02-16T09:30:40.388Z,1029.07
2018-02-16T09:31:40.313Z,1029.07
2018-02-16T09:32:40.317Z,1029.07
2018-02-16T09:33:40.402Z,1029.08
2018-02-16T09:34:40.354Z,1029.08
2018-02-16T09:35:40.312Z,1029.1
2018-02-16T09:36:40.363Z,1029.11
2018-02-16T09:37:40.399Z,1029.1
2018-02-16T09:38:40.418Z,1029.12
2018-02-16T09:39:40.318Z,1029.12
2018-02-16T09:40:40.317Z,1029.11
2018-02-16T09:41:40.375Z,1029.12
2018-02-16T09:42:40.306Z,1029.15
2018-02-16T09:43:40.314Z,1029.17
2018-02-16T09:44:40.347Z,1029.17
2018-02-16T09:45:40.369Z,1029.17
2018-02-16T09:46:40.392Z,1029.2
2018-02-16T09:47:40.384Z,1029.21
2018-02-16T09:48:40.317Z,1029.23
2018-02-16T09:49:40.358Z,1029.24
2018-02-16T09:50:40.316Z,1029.25
2018-02-16T09:51:40.373Z,1029.2
2018-02-16T09:52:40.396Z,1029.28
2018-02-16T09:53:40.333Z,1029.29
2018-02-16T09:54:40.313Z,1029.32
2018-02-16T09:55:40.355Z,1029.26
2018-02-16T09:56:40.319Z,1029.28
2018-02-16T09:57:40.392Z,1029.27
2018-02-16T09:58:40.587Z,1029.25
2018-02-16T09:59:40.413Z,1029.24
2018-02-16T10:00:40.374Z,1029.23
2018-02-16T10:01:40.356Z,1029.21
2018-02-16T10:02:40.365Z,1029.23
2018-02-16T10:03:40.377Z,1029.24
2018-02-16T10:04:40.407Z,1029.25
2018-02-16T10:05:40.303Z,1029.28
2018-02-16T10:06:40.294Z,1029.31
2018-02-16T10:07:40.351Z,1029.29
2018-02-16T10:08:40.290Z,1029.27
2018-02-16T10:09:40.371Z,1029.3
2018-02-16T10:10:40.387Z,1029.28
2018-02-16T10:11:40.299Z,1029.31
2018-02-16T10:12:40.310Z,1029.29
2018-02-16T10:13:40.295Z,1029.25
2018-02-16T10:14:40.302Z,1029.26
2018-02-16T10:15:40.304Z,1029.25
2018-02-16T10:16:40.307Z,1029.26
2018-02-16T10:17:40.298Z,1029.26
2018-02-16T10:18:40.393Z,1029.3
2018-02-16T10:19:40.601Z,1029.29
2018-02-16T10:20:40.265Z,1029.3
2018-02-16T10:21:40.286Z,1029.34
2018-02-16T10:22:40.308Z,1029.3
2018-02-16T10:23:40.301Z,1029.31
2018-02-16T10:24:40.349Z,1029.33
2018-02-16T10:25:40.305Z,1029.38
2018-02-16T10:26:40.390Z,1029.32
2018-02-16T10:27:40.406Z,1029.38
2018-02-16T10:28:40.286Z,1029.36
2018-02-16T10:29:40.322Z,1029.39
2018-02-16T10:30:40.356Z,1029.39
2018-02-16T10:31:40.300Z,1029.43
2018-02-16T10:32:40.282Z,1029.45
2018-02-16T10:33:40.291Z,1029.44
2018-02-16T10:34:40.409Z,1029.47
2018-02-16T10:35:40.298Z,1029.49
2018-02-16T10:36:40.345Z,1029.53
2018-02-16T10:37:40.288Z,1029.53
2018-02-16T10:38:40.290Z,1029.52
2018-02-16T10:39:40.316Z,1029.5
2018-02-16T10:40:40.289Z,1029.51
2018-02-16T10:41:40.266Z,1029.49
2018-02-16T10:42:40.423Z,1029.53
2018-02-16T10:43:40.286Z,1029.55
2018-02-16T10:44:40.308Z,1029.56
2018-02-16T10:45:40.291Z,1029.57
2018-02-16T10:46:40.293Z,1029.55
2018-02-16T10:47:40.296Z,1029.57
2018-02-16T10:48:40.301Z,1029.58
2018-02-16T10:49:40.405Z,1029.57
2018-02-16T10:50:40.286Z,1029.54
2018-02-16T10:51:40.326Z,1029.52
2018-02-16T10:52:40.260Z,1029.48
2018-02-16T10:53:40.290Z,1029.54
2018-02-16T10:54:40.282Z,1029.54
2018-02-16T10:55:40.290Z,1029.49
2018-02-16T10:56:40.317Z,1029.53
2018-02-16T10:57:40.368Z,1029.51
2018-02-16T10:58:40.279Z,1029.48
2018-02-16T10:59:40.339Z,1029.48
2018-02-16T11:00:40.292Z,1029.46
2018-02-16T11:01:40.342Z,1029.42
2018-02-16T11:02:40.282Z,1029.44
2018-02-16T11:03:40.314Z,1029.43
2018-02-16T11:04:40.318Z,1029.43
2018-02-16T11:05:40.309Z,1029.51
2018-02-16T11:06:40.351Z,1029.44
2018-02-16T11:07:40.387Z,1029.48
2018-02-16T11:08:40.290Z,1029.46
2018-02-16T11:09:40.301Z,1029.45
2018-02-16T11:10:40.273Z,1029.46
2018-02-16T11:11:40.275Z,1029.45
2018-02-16T11:12:40.364Z,1029.42
2018-02-16T11:13:40.292Z,1029.46
2018-02-16T11:14:40.275Z,1029.45
2018-02-16T11:15:40.401Z,1029.43
2018-02-16T11:16:40.374Z,1029.44
2018-02-16T11:17:40.284Z,1029.41
2018-02-16T11:18:40.265Z,1029.42
2018-02-16T11:19:40.289Z,1029.41
2018-02-16T11:20:40.279Z,1029.41
2018-02-16T11:21:40.255Z,1029.39
2018-02-16T11:22:40.248Z,1029.41
2018-02-16T11:23:40.299Z,1029.41
2018-02-16T11:24:40.349Z,1029.37
2018-02-16T11:25:40.275Z,1029.43
2018-02-16T11:26:40.309Z,1029.41
2018-02-16T11:27:40.286Z,1029.4
2018-02-16T11:28:40.311Z,1029.42
2018-02-16T11:29:40.245Z,1029.42
2018-02-16T11:30:40.359Z,1029.43
2018-02-16T11:31:40.391Z,1029.41
2018-02-16T11:32:40.269Z,1029.44
2018-02-16T11:33:40.321Z,1029.46
2018-02-16T11:34:40.300Z,1029.45
2018-02-16T11:35:40.249Z,1029.48
2018-02-16T11:36:40.273Z,1029.49
2018-02-16T11:37:40.245Z,1029.47
2018-02-16T11:38:40.265Z,1029.52
2018-02-16T11:39:40.300Z,1029.5
2018-02-16T11:40:40.306Z,1029.52
2018-02-16T11:41:40.258Z,1029.53
2018-02-16T11:42:40.395Z,1029.52
2018-02-16T11:43:40.270Z,1029.53
2018-02-16T11:44:40.261Z,1029.53
2018-02-16T11:45:40.242Z,1029.5
2018-02-16T11:46:40.251Z,1029.5
2018-02-16T11:47:40.271Z,1029.54
2018-02-16T11:48:40.302Z,1029.5
2018-02-16T11:49:40.268Z,1029.51
2018-02-16T11:50:40.261Z,1029.5
2018-02-16T11:51:40.330Z,1029.52
2018-02-16T11:52:40.275Z,1029.51
2018-02-16T11:53:40.270Z,1029.51
2018-02-16T11:54:40.391Z,1029.46
2018-02-16T11:55:40.269Z,1029.49
2018-02-16T11:56:40.266Z,1029.45
2018-02-16T11:57:40.327Z,1029.44
2018-02-16T11:58:40.261Z,1029.43
2018-02-16T11:59:40.252Z,1029.44
2018-02-16T12:00:40.374Z,1029.43
2018-02-16T12:01:40.261Z,1029.43
2018-02-16T12:02:40.268Z,1029.44
2018-02-16T12:03:40.300Z,1029.42
2018-02-16T12:04:40.332Z,1029.42
2018-02-16T12:05:40.290Z,1029.43
2018-02-16T12:06:40.270Z,1029.41
2018-02-16T12:07:40.311Z,1029.4
2018-02-16T12:08:40.234Z,1029.43
2018-02-16T12:09:40.333Z,1029.4
2018-02-16T12:10:40.639Z,1029.44
2018-02-16T12:11:40.260Z,1029.39
2018-02-16T12:12:40.277Z,1029.39
2018-02-16T12:13:40.271Z,1029.38
2018-02-16T12:14:40.259Z,1029.39
2018-02-16T12:15:40.328Z,1029.35
2018-02-16T12:16:40.338Z,1029.42
2018-02-16T12:17:40.249Z,1029.38
2018-02-16T12:18:40.270Z,1029.38
2018-02-16T12:19:40.241Z,1029.34
2018-02-16T12:20:40.275Z,1029.31
2018-02-16T12:21:40.302Z,1029.29
2018-02-16T12:22:40.236Z,1029.26
2018-02-16T12:23:40.255Z,1029.3
2018-02-16T12:24:40.249Z,1029.32
2018-02-16T12:25:40.320Z,1029.28
2018-02-16T12:26:40.262Z,1029.25
2018-02-16T12:27:40.254Z,1029.3
2018-02-16T12:28:40.252Z,1029.28
2018-02-16T12:29:40.248Z,1029.26
2018-02-16T12:30:40.279Z,1029.24
2018-02-16T12:31:40.280Z,1029.27
2018-02-16T12:32:40.231Z,1029.22
2018-02-16T12:33:40.329Z,1029.23
2018-02-16T12:34:40.237Z,1029.25
2018-02-16T12:35:40.232Z,1029.24
2018-02-16T12:36:40.276Z,1029.29
2018-02-16T12:37:40.289Z,1029.25
2018-02-16T12:38:40.263Z,1029.24
2018-02-16T12:39:40.331Z,1029.27
2018-02-16T12:40:40.327Z,1029.23
2018-02-16T12:41:40.367Z,1029.22
2018-02-16T12:42:40.296Z,1029.21
2018-02-16T12:43:40.301Z,1029.2
2018-02-16T12:44:40.232Z,1029.21
2018-02-16T12:45:40.244Z,1029.17
2018-02-16T12:46:40.251Z,1029.19
2018-02-16T12:47:40.251Z,1029.17
2018-02-16T12:48:40.255Z,1029.17
2018-02-16T12:49:40.244Z,1029.19
2018-02-16T12:50:40.246Z,1029.18
2018-02-16T12:51:40.309Z,1029.16
2018-02-16T12:52:40.255Z,1029.13
2018-02-16T12:53:40.271Z,1029.18
2018-02-16T12:54:40.328Z,1029.16
2018-02-16T12:55:40.250Z,1029.14
2018-02-16T12:56:40.320Z,1029.19
2018-02-16T12:57:40.239Z,1029.17
2018-02-16T12:58:40.346Z,1029.17
2018-02-16T12:59:40.289Z,1029.16
2018-02-16T13:00:40.280Z,1029.18
2018-02-16T13:01:40.248Z,1029.2
2018-02-16T13:02:40.225Z,1029.13
2018-02-16T13:03:40.270Z,1029.14
2018-02-16T13:04:40.224Z,1029.16
2018-02-16T13:05:40.248Z,1029.11
2018-02-16T13:06:40.257Z,1029.14
2018-02-16T13:07:40.268Z,1029.1
2018-02-16T13:08:40.235Z,1029.12
2018-02-16T13:09:40.218Z,1029.09
2018-02-16T13:10:40.233Z,1029.14
2018-02-16T13:11:40.218Z,1029.12
2018-02-16T13:12:40.220Z,1029.11
2018-02-16T13:13:40.255Z,1029.1
2018-02-16T13:14:40.248Z,1029.06
2018-02-16T13:15:40.240Z,1029.06
2018-02-16T13:16:40.603Z,1029.06
2018-02-16T13:17:40.342Z,1029.06
2018-02-16T13:18:40.269Z,1029.03
2018-02-16T13:19:40.233Z,1029.03
2018-02-16T13:20:40.237Z,1029.04
2018-02-16T13:21:40.208Z,1029
2018-02-16T13:22:40.234Z,1028.99
2018-02-16T13:23:40.234Z,1029.02
2018-02-16T13:24:40.241Z,1029.02
2018-02-16T13:25:40.205Z,1029
2018-02-16T13:26:40.204Z,1029.05
2018-02-16T13:27:40.208Z,1029.04
2018-02-16T13:28:40.231Z,1029.03
2018-02-16T13:29:40.218Z,1029.04
2018-02-16T13:30:40.299Z,1029
2018-02-16T13:31:40.312Z,1029.01
2018-02-16T13:32:40.223Z,1028.94
2018-02-16T13:33:40.368Z,1028.96
2018-02-16T13:34:40.224Z,1028.93
2018-02-16T13:35:40.268Z,1028.95
2018-02-16T13:36:40.220Z,1028.93
2018-02-16T13:37:40.239Z,1028.91
2018-02-16T13:38:40.486Z,1028.91
2018-02-16T13:39:40.221Z,1028.92
2018-02-16T13:40:40.225Z,1028.9
2018-02-16T13:41:40.280Z,1028.89
2018-02-16T13:42:40.227Z,1028.88
2018-02-16T13:43:40.373Z,1028.81
2018-02-16T13:44:40.208Z,1028.81
2018-02-16T13:45:40.230Z,1028.81
2018-02-16T13:46:40.206Z,1028.8
2018-02-16T13:47:40.238Z,1028.79
2018-02-16T13:48:40.260Z,1028.8
2018-02-16T13:49:40.227Z,1028.81
2018-02-16T13:50:40.245Z,1028.84
2018-02-16T13:51:40.302Z,1028.86
2018-02-16T13:52:40.338Z,1028.81
2018-02-16T13:53:40.202Z,1028.79
2018-02-16T13:54:40.281Z,1028.79
2018-02-16T13:55:40.343Z,1028.77
2018-02-16T13:56:40.244Z,1028.76
2018-02-16T13:57:40.265Z,1028.77
2018-02-16T13:58:40.203Z,1028.77
2018-02-16T13:59:40.200Z,1028.83
2018-02-16T14:00:40.236Z,1028.81
2018-02-16T14:01:40.225Z,1028.84
2018-02-16T14:02:40.221Z,1028.82
2018-02-16T14:03:40.229Z,1028.83
2018-02-16T14:04:40.226Z,1028.87
2018-02-16T14:05:40.206Z,1028.85
2018-02-16T14:06:40.212Z,1028.89
2018-02-16T14:07:40.219Z,1028.86
2018-02-16T14:08:40.206Z,1028.81
2018-02-16T14:09:40.212Z,1028.85
2018-02-16T14:10:40.200Z,1028.84
2018-02-16T14:11:40.238Z,1028.81
2018-02-16T14:12:40.225Z,1028.8
2018-02-16T14:13:40.198Z,1028.81
2018-02-16T14:14:40.209Z,1028.87
2018-02-16T14:15:40.199Z,1028.81
2018-02-16T14:16:40.228Z,1028.81
2018-02-16T14:17:40.202Z,1028.82
2018-02-16T14:18:40.217Z,1028.88
2018-02-16T14:19:40.226Z,1028.91
2018-02-16T14:20:40.219Z,1028.87
2018-02-16T14:21:40.198Z,1028.94
2018-02-16T14:22:40.191Z,1028.94
2018-02-16T14:23:40.200Z,1028.95
2018-02-16T14:24:40.215Z,1028.93
2018-02-16T14:25:40.266Z,1028.96
2018-02-16T14:26:40.193Z,1028.95
2018-02-16T14:27:40.195Z,1028.96
2018-02-16T14:28:40.232Z,1028.99
2018-02-16T14:29:40.299Z,1029
2018-02-16T14:30:40.251Z,1028.99
2018-02-16T14:31:40.216Z,1028.95
2018-02-16T14:32:40.208Z,1028.97
2018-02-16T14:33:40.201Z,1028.94
2018-02-16T14:34:40.205Z,1028.93
2018-02-16T14:35:40.216Z,1028.85
2018-02-16T14:36:40.209Z,1028.83
2018-02-16T14:37:40.222Z,1028.87
2018-02-16T14:38:40.219Z,1028.83
2018-02-16T14:39:40.234Z,1028.81
2018-02-16T14:40:40.262Z,1028.78
2018-02-16T14:41:40.201Z,1028.83
2018-02-16T14:42:40.206Z,1028.83
2018-02-16T14:43:40.201Z,1028.79
2018-02-16T14:44:40.209Z,1028.81
2018-02-16T14:45:40.266Z,1028.77
2018-02-16T14:46:40.289Z,1028.77
2018-02-16T14:47:40.233Z,1028.76
2018-02-16T14:48:40.199Z,1028.73
2018-02-16T14:49:40.184Z,1028.75
2018-02-16T14:50:40.191Z,1028.71
2018-02-16T14:51:40.190Z,1028.73
2018-02-16T14:52:40.212Z,1028.7
2018-02-16T14:53:40.190Z,1028.66
2018-02-16T14:54:40.242Z,1028.66
2018-02-16T14:55:40.190Z,1028.69
2018-02-16T14:56:40.221Z,1028.66
2018-02-16T14:57:40.202Z,1028.68
2018-02-16T14:58:40.213Z,1028.7
2018-02-16T14:59:40.209Z,1028.65
2018-02-16T15:00:40.269Z,1028.61
2018-02-16T15:01:40.304Z,1028.65
2018-02-16T15:02:40.198Z,1028.6
2018-02-16T15:03:40.200Z,1028.57
2018-02-16T15:04:40.426Z,1028.55
2018-02-16T15:05:40.328Z,1028.53
2018-02-16T15:06:40.403Z,1028.56
2018-02-16T15:07:40.232Z,1028.52
2018-02-16T15:08:40.206Z,1028.56
2018-02-16T15:09:40.183Z,1028.56
2018-02-16T15:10:40.184Z,1028.58
2018-02-16T15:11:40.184Z,1028.57
2018-02-16T15:12:40.205Z,1028.56
2018-02-16T15:13:40.199Z,1028.56
2018-02-16T15:14:40.217Z,1028.57
2018-02-16T15:15:40.181Z,1028.54
2018-02-16T15:16:40.176Z,1028.58
2018-02-16T15:17:40.461Z,1028.54
2018-02-16T15:18:40.299Z,1028.51
2018-02-16T15:19:40.391Z,1028.52
2018-02-16T15:20:40.181Z,1028.5
2018-02-16T15:21:40.188Z,1028.54
2018-02-16T15:22:40.176Z,1028.49
2018-02-16T15:23:40.198Z,1028.5
2018-02-16T15:24:40.201Z,1028.53
2018-02-16T15:25:40.278Z,1028.52
2018-02-16T15:26:40.299Z,1028.5
2018-02-16T15:27:40.244Z,1028.49
2018-02-16T15:28:40.199Z,1028.52
2018-02-16T15:29:40.194Z,1028.48
2018-02-16T15:30:40.170Z,1028.53
2018-02-16T15:31:40.159Z,1028.56
2018-02-16T15:32:40.170Z,1028.5
2018-02-16T15:33:40.208Z,1028.54
2018-02-16T15:34:40.168Z,1028.48
2018-02-16T15:35:40.192Z,1028.49
2018-02-16T15:36:40.175Z,1028.53
2018-02-16T15:37:40.173Z,1028.5
2018-02-16T15:38:40.195Z,1028.55
2018-02-16T15:39:40.164Z,1028.56
2018-02-16T15:40:40.215Z,1028.58
2018-02-16T15:41:40.176Z,1028.57
2018-02-16T15:42:40.213Z,1028.62
2018-02-16T15:43:40.189Z,1028.71
2018-02-16T15:44:40.171Z,1028.68
2018-02-16T15:45:40.224Z,1028.71
2018-02-16T15:46:40.192Z,1028.7
2018-02-16T15:47:40.169Z,1028.73
2018-02-16T15:48:40.172Z,1028.73
2018-02-16T15:49:40.166Z,1028.72
2018-02-16T15:50:40.316Z,1028.73
2018-02-16T15:51:40.177Z,1028.75
2018-02-16T15:52:40.180Z,1028.76
2018-02-16T15:53:40.171Z,1028.76
2018-02-16T15:54:40.158Z,1028.77
2018-02-16T15:55:40.175Z,1028.79
2018-02-16T15:56:40.195Z,1028.8
2018-02-16T15:57:40.187Z,1028.79
2018-02-16T15:58:40.187Z,1028.73
2018-02-16T15:59:40.174Z,1028.8
2018-02-16T16:00:40.162Z,1028.79
2018-02-16T16:01:40.165Z,1028.84
2018-02-16T16:02:40.173Z,1028.83
2018-02-16T16:03:40.166Z,1028.82
2018-02-16T16:04:40.168Z,1028.84
2018-02-16T16:05:40.213Z,1028.86
2018-02-16T16:06:40.173Z,1028.81
2018-02-16T16:07:40.190Z,1028.82
2018-02-16T16:08:40.167Z,1028.8
2018-02-16T16:09:40.162Z,1028.83
2018-02-16T16:10:40.236Z,1028.77
2018-02-16T16:11:40.157Z,1028.79
2018-02-16T16:12:40.188Z,1028.75
2018-02-16T16:13:40.162Z,1028.74
2018-02-16T16:14:40.182Z,1028.73
2018-02-16T16:15:40.417Z,1028.79
2018-02-16T16:16:40.147Z,1028.68
2018-02-16T16:17:40.156Z,1028.74
2018-02-16T16:18:40.160Z,1028.74
2018-02-16T16:19:40.184Z,1028.65
2018-02-16T16:20:40.270Z,1028.67
2018-02-16T16:21:40.158Z,1028.66
2018-02-16T16:22:40.158Z,1028.67
2018-02-16T16:23:40.458Z,1028.71
2018-02-16T16:24:40.171Z,1028.68
2018-02-16T16:25:40.163Z,1028.74
2018-02-16T16:26:40.162Z,1028.75
2018-02-16T16:27:40.214Z,1028.79
2018-02-16T16:28:40.214Z,1028.79
2018-02-16T16:29:40.155Z,1028.82
2018-02-16T16:30:40.154Z,1028.8
2018-02-16T16:31:40.175Z,1028.82
2018-02-16T16:32:40.169Z,1028.86
2018-02-16T16:33:40.195Z,1028.81
2018-02-16T16:34:40.159Z,1028.85
2018-02-16T16:35:40.192Z,1028.84
2018-02-16T16:36:40.164Z,1028.82
2018-02-16T16:37:40.191Z,1028.82
2018-02-16T16:38:40.168Z,1028.81
2018-02-16T16:39:40.174Z,1028.8
2018-02-16T16:40:40.187Z,1028.83
2018-02-16T16:41:40.152Z,1028.84
2018-02-16T16:42:40.190Z,1028.89
2018-02-16T16:43:40.156Z,1028.88
2018-02-16T16:44:40.152Z,1028.91
2018-02-16T16:45:40.227Z,1028.86
2018-02-16T16:46:40.157Z,1028.87
2018-02-16T16:47:40.234Z,1028.88
2018-02-16T16:48:40.163Z,1028.89
2018-02-16T16:49:40.156Z,1028.93
2018-02-16T16:50:40.178Z,1028.89
2018-02-16T16:51:40.150Z,1028.92
2018-02-16T16:52:40.187Z,1028.98
2018-02-16T16:53:40.186Z,1028.95
2018-02-16T16:54:40.164Z,1029
2018-02-16T16:55:40.141Z,1028.97
2018-02-16T16:56:40.207Z,1028.99
2018-02-16T16:57:40.194Z,1029
2018-02-16T16:58:40.178Z,1029
2018-02-16T16:59:40.254Z,1029.01
2018-02-16T17:00:40.137Z,1029.04
2018-02-16T17:01:40.263Z,1029.04
2018-02-16T17:02:40.190Z,1029.02
2018-02-16T17:03:40.186Z,1029.06
2018-02-16T17:04:40.144Z,1029
2018-02-16T17:05:40.147Z,1029.03
2018-02-16T17:06:40.149Z,1029.02
2018-02-16T17:07:40.158Z,1029.03
2018-02-16T17:08:40.168Z,1029.04
2018-02-16T17:09:40.148Z,1028.98
2018-02-16T17:10:40.139Z,1029.01
2018-02-16T17:11:40.174Z,1029.04
2018-02-16T17:12:40.147Z,1029.03
2018-02-16T17:13:40.155Z,1029.02
2018-02-16T17:14:40.133Z,1029.08
2018-02-16T17:15:40.141Z,1029.09
2018-02-16T17:16:40.186Z,1029.09
2018-02-16T17:17:40.158Z,1029.13
2018-02-16T17:18:40.242Z,1029.16
2018-02-16T17:19:40.156Z,1029.12
2018-02-16T17:20:40.131Z,1029.14
2018-02-16T17:21:40.166Z,1029.19
2018-02-16T17:22:40.142Z,1029.21
2018-02-16T17:23:40.281Z,1029.2
2018-02-16T17:24:40.257Z,1029.21
2018-02-16T17:25:40.239Z,1029.25
2018-02-16T17:26:40.163Z,1029.24
2018-02-16T17:27:40.179Z,1029.26
2018-02-16T17:28:40.146Z,1029.22
2018-02-16T17:29:40.131Z,1029.2
2018-02-16T17:30:40.151Z,1029.18
2018-02-16T17:31:40.141Z,1029.22
2018-02-16T17:32:40.237Z,1029.19
2018-02-16T17:33:40.140Z,1029.13
2018-02-16T17:34:40.138Z,1029.14
2018-02-16T17:35:40.147Z,1029.11
2018-02-16T17:36:40.227Z,1029.11
2018-02-16T17:37:40.167Z,1029.12
2018-02-16T17:38:40.137Z,1029.12
2018-02-16T17:39:40.139Z,1029.11
2018-02-16T17:40:40.130Z,1029.13
2018-02-16T17:41:40.142Z,1029.14
2018-02-16T17:42:40.133Z,1029.18
2018-02-16T17:43:40.134Z,1029.16
2018-02-16T17:44:40.208Z,1029.18
2018-02-16T17:45:40.197Z,1029.23
2018-02-16T17:46:40.206Z,1029.22
2018-02-16T17:47:40.159Z,1029.21
2018-02-16T17:48:40.134Z,1029.22
2018-02-16T17:49:40.180Z,1029.18
2018-02-16T17:50:40.122Z,1029.21
2018-02-16T17:51:40.146Z,1029.19
2018-02-16T17:52:40.161Z,1029.2
2018-02-16T17:53:40.156Z,1029.19
2018-02-16T17:54:40.161Z,1029.2
2018-02-16T17:55:40.127Z,1029.19
2018-02-16T17:56:40.136Z,1029.17
2018-02-16T17:57:40.113Z,1029.17
2018-02-16T17:58:40.164Z,1029.13
2018-02-16T17:59:40.131Z,1029.08
2018-02-16T18:00:40.134Z,1029.12
2018-02-16T18:01:40.122Z,1029.08
2018-02-16T18:02:40.155Z,1029.04
2018-02-16T18:03:40.252Z,1029.06
2018-02-16T18:04:40.220Z,1029.04
2018-02-16T18:05:40.139Z,1029.02
2018-02-16T18:06:40.119Z,1029.05
2018-02-16T18:07:40.127Z,1029.05
2018-02-16T18:08:40.148Z,1029.13
2018-02-16T18:09:40.119Z,1029.09
2018-02-16T18:10:40.196Z,1029.08
2018-02-16T18:11:40.126Z,1029.08
2018-02-16T18:12:40.240Z,1029.09
2018-02-16T18:13:40.121Z,1029.07
2018-02-16T18:14:40.118Z,1029.13
2018-02-16T18:15:40.110Z,1029.07
2018-02-16T18:16:40.128Z,1029.04
2018-02-16T18:17:40.135Z,1029.03
2018-02-16T18:18:40.119Z,1029.03
2018-02-16T18:19:40.239Z,1029.03
2018-02-16T18:20:40.273Z,1029.03
2018-02-16T18:21:40.145Z,1029.02
2018-02-16T18:22:40.117Z,1029.03
2018-02-16T18:23:40.218Z,1029.02
2018-02-16T18:24:40.234Z,1029.07
2018-02-16T18:25:40.122Z,1029.04
2018-02-16T18:26:40.115Z,1029.04
2018-02-16T18:27:40.140Z,1029.12
2018-02-16T18:28:40.137Z,1029.1
2018-02-16T18:29:40.147Z,1029.07
2018-02-16T18:30:40.117Z,1029.06
2018-02-16T18:31:40.124Z,1028.99
2018-02-16T18:32:40.118Z,1029.02
2018-02-16T18:33:40.115Z,1028.99
2018-02-16T18:34:40.270Z,1028.96
2018-02-16T18:35:40.136Z,1028.94
2018-02-16T18:36:40.106Z,1028.94
2018-02-16T18:37:40.128Z,1028.92
2018-02-16T18:38:40.152Z,1028.9
2018-02-16T18:39:40.130Z,1028.89
2018-02-16T18:40:40.107Z,1028.96
2018-02-16T18:41:40.116Z,1028.95
2018-02-16T18:42:40.141Z,1028.91
2018-02-16T18:43:40.138Z,1028.94
2018-02-16T18:44:40.156Z,1028.92
2018-02-16T18:45:40.113Z,1028.96
2018-02-16T18:46:40.130Z,1028.89
2018-02-16T18:47:40.106Z,1028.89
2018-02-16T18:48:40.133Z,1028.88
2018-02-16T18:49:40.149Z,1028.85
2018-02-16T18:50:40.164Z,1028.82
2018-02-16T18:51:40.133Z,1028.84
2018-02-16T18:52:40.100Z,1028.87
2018-02-16T18:53:40.137Z,1028.86
2018-02-16T18:54:40.101Z,1028.82
2018-02-16T18:55:40.108Z,1028.86
2018-02-16T18:56:40.140Z,1028.81
2018-02-16T18:57:40.143Z,1028.83
2018-02-16T18:58:40.197Z,1028.81
2018-02-16T18:59:40.123Z,1028.79
2018-02-16T19:00:40.121Z,1028.81
2018-02-16T19:01:40.103Z,1028.83
2018-02-16T19:02:40.107Z,1028.84
2018-02-16T19:03:40.106Z,1028.83
2018-02-16T19:04:40.176Z,1028.85
2018-02-16T19:05:40.110Z,1028.81
2018-02-16T19:06:40.129Z,1028.78
2018-02-16T19:07:40.124Z,1028.79
2018-02-16T19:08:40.121Z,1028.75
2018-02-16T19:09:40.105Z,1028.74
2018-02-16T19:10:40.219Z,1028.74
2018-02-16T19:11:40.209Z,1028.71
2018-02-16T19:12:40.108Z,1028.7
2018-02-16T19:13:40.126Z,1028.73
2018-02-16T19:14:40.120Z,1028.67
2018-02-16T19:15:40.108Z,1028.69
2018-02-16T19:16:40.173Z,1028.71
2018-02-16T19:17:40.098Z,1028.69
2018-02-16T19:18:40.573Z,1028.69
2018-02-16T19:19:40.212Z,1028.7
2018-02-16T19:20:40.118Z,1028.71
2018-02-16T19:21:40.097Z,1028.72
2018-02-16T19:22:40.118Z,1028.71
2018-02-16T19:23:40.139Z,1028.7
2018-02-16T19:24:40.109Z,1028.65
2018-02-16T19:25:40.167Z,1028.61
2018-02-16T19:26:40.391Z,1028.64
2018-02-16T19:27:17.214Z,1028.66
2018-02-16T19:28:16.836Z,1028.65
2018-02-16T19:29:16.883Z,1028.64
2018-02-16T19:30:16.889Z,1028.61
2018-02-16T19:31:16.847Z,1028.63
2018-02-16T19:32:16.856Z,1028.61
2018-02-16T19:33:16.848Z,1028.64
2018-02-16T19:34:17.286Z,1028.67
2018-02-16T19:35:16.837Z,1028.7
2018-02-16T19:36:16.863Z,1028.68
2018-02-16T19:37:17.150Z,1028.66
2018-02-16T19:38:17.078Z,1028.59
2018-02-16T19:39:17.043Z,1028.57
2018-02-16T19:40:16.879Z,1028.53
2018-02-16T19:41:16.875Z,1028.47